createdAt,value
2018-12-28T00:00:40.220Z,33.79
2018-12-28T00:03:43.771Z,33.85
2018-12-28T00:06:47.239Z,33.86
2018-12-28T00:09:50.737Z,33.81
2018-12-28T00:12:54.346Z,33.86
2018-12-28T00:15:57.852Z,33.84
2018-12-28T00:19:01.285Z,33.84
2018-12-28T00:22:04.965Z,33.84
2018-12-28T00:25:09.463Z,33.85
2018-12-28T00:28:12.963Z,33.89
2018-12-28T00:31:16.429Z,33.85
2018-12-28T00:34:20.124Z,33.90
2018-12-28T00:37:24.732Z,33.90
2018-12-28T00:40:34.355Z,33.89
2018-12-28T00:43:37.847Z,33.91
2018-12-28T00:46:41.335Z,33.85
2018-12-28T00:49:46.911Z,33.88
2018-12-28T00:52:50.389Z,33.88
2018-12-28T00:55:54.952Z,33.86
2018-12-28T00:58:58.413Z,33.88
2018-12-28T01:02:01.942Z,33.86
2018-12-28T01:05:05.412Z,33.87
2018-12-28T01:08:08.922Z,33.86
2018-12-28T01:11:14.489Z,33.84
2018-12-28T01:14:17.962Z,33.84
2018-12-28T01:17:21.496Z,33.80
2018-12-28T01:20:24.995Z,33.80
2018-12-28T01:23:29.510Z,33.86
2018-12-28T01:26:34.022Z,33.84
2018-12-28T01:29:37.535Z,33.83
2018-12-28T01:32:41.045Z,33.84
2018-12-28T01:35:44.499Z,33.86
2018-12-28T01:38:49.052Z,33.86
2018-12-28T01:41:52.553Z,33.81
2018-12-28T01:44:56.063Z,33.89
2018-12-28T01:47:59.551Z,33.90
2018-12-28T01:51:03.073Z,33.90
2018-12-28T01:54:06.570Z,33.90
2018-12-28T01:57:10.068Z,33.92
2018-12-28T02:00:13.565Z,33.92
2018-12-28T02:03:17.071Z,33.91
2018-12-28T02:06:20.563Z,33.93
2018-12-28T02:09:28.346Z,33.91
2018-12-28T02:12:29.412Z,33.92
2018-12-28T02:15:32.900Z,33.92
2018-12-28T02:18:36.503Z,33.91
2018-12-28T02:21:40.030Z,33.93
2018-12-28T02:24:43.527Z,33.91
2018-12-28T02:27:46.962Z,33.87
2018-12-28T02:30:56.597Z,33.89
2018-12-28T02:34:00.106Z,33.86
2018-12-28T02:37:04.597Z,33.90
2018-12-28T02:40:08.087Z,33.89
2018-12-28T02:43:12.611Z,33.88
2018-12-28T02:46:16.183Z,33.88
2018-12-28T02:49:19.837Z,33.89
2018-12-28T02:52:23.328Z,33.86
2018-12-28T02:55:26.777Z,33.89
2018-12-28T02:58:30.329Z,33.92
2018-12-28T03:01:33.827Z,33.91
2018-12-28T03:04:37.328Z,33.90
2018-12-28T03:07:40.802Z,33.89
2018-12-28T03:10:44.312Z,33.87
2018-12-28T03:13:47.934Z,33.88
2018-12-28T03:16:51.457Z,33.91
2018-12-28T03:19:54.918Z,33.90
2018-12-28T03:22:58.581Z,33.89
2018-12-28T03:26:04.090Z,33.94
2018-12-28T03:29:08.629Z,33.94
2018-12-28T03:32:12.114Z,33.91
2018-12-28T03:35:15.640Z,33.94
2018-12-28T03:38:19.141Z,33.92
2018-12-28T03:41:22.642Z,33.91
2018-12-28T03:44:26.185Z,33.94
2018-12-28T03:47:30.655Z,33.93
2018-12-28T03:50:34.134Z,33.98
2018-12-28T03:53:37.660Z,33.95
2018-12-28T03:56:41.147Z,33.96
2018-12-28T03:59:44.639Z,33.95
2018-12-28T04:02:48.160Z,33.91
2018-12-28T04:05:52.658Z,33.93
2018-12-28T04:08:56.188Z,33.90
2018-12-28T04:12:01.752Z,33.90
2018-12-28T04:15:08.291Z,33.89
2018-12-28T04:18:18.288Z,33.89
2018-12-28T04:21:21.946Z,33.87
2018-12-28T04:24:25.589Z,33.89
2018-12-28T04:27:29.059Z,33.89
2018-12-28T04:30:33.584Z,33.88
2018-12-28T04:33:37.041Z,33.90
2018-12-28T04:36:40.576Z,33.88
2018-12-28T04:39:44.075Z,33.84
2018-12-28T04:42:47.584Z,33.85
2018-12-28T04:45:57.016Z,33.87
2018-12-28T04:49:00.514Z,33.83
2018-12-28T04:52:04.012Z,33.86
2018-12-28T04:55:08.563Z,33.84
2018-12-28T04:58:13.700Z,33.90
2018-12-28T05:01:25.273Z,33.85
2018-12-28T05:04:39.843Z,33.88
2018-12-28T05:08:31.669Z,33.88
2018-12-28T05:11:52.405Z,33.89
2018-12-28T05:15:40.846Z,33.89
2018-12-28T05:19:18.635Z,33.93
2018-12-28T05:22:46.094Z,33.91
2018-12-28T05:26:16.215Z,33.94
2018-12-28T05:29:47.383Z,33.95
2018-12-28T05:33:01.227Z,33.95
2018-12-28T05:36:04.767Z,33.95
2018-12-28T05:39:09.695Z,33.95
2018-12-28T05:42:13.346Z,33.93
2018-12-28T05:45:16.871Z,33.94
2018-12-28T05:48:21.412Z,33.94
2018-12-28T05:51:25.946Z,33.94
2018-12-28T05:54:29.418Z,33.92
2018-12-28T05:57:32.928Z,33.92
2018-12-28T06:00:36.410Z,33.92
2018-12-28T06:03:39.934Z,33.96
2018-12-28T06:06:49.357Z,33.91
2018-12-28T06:09:52.902Z,33.94
2018-12-28T06:12:56.356Z,33.93
2018-12-28T06:15:59.859Z,33.92
2018-12-28T06:19:03.395Z,33.92
2018-12-28T06:22:06.849Z,33.91
2018-12-28T06:25:11.406Z,33.88
2018-12-28T06:28:14.901Z,33.91
2018-12-28T06:31:18.482Z,33.91
2018-12-28T06:34:22.085Z,33.90
2018-12-28T06:37:25.613Z,33.88
2018-12-28T06:40:30.127Z,33.86
2018-12-28T06:43:33.647Z,33.88
2018-12-28T06:46:37.143Z,33.91
2018-12-28T06:49:42.694Z,33.90
2018-12-28T06:53:35.174Z,33.95
2018-12-28T06:57:19.061Z,33.96
2018-12-28T07:01:06.301Z,33.95
2018-12-28T07:04:49.843Z,33.94
2018-12-28T07:08:53.275Z,33.98
2018-12-28T07:12:33.055Z,33.96
2018-12-28T07:16:08.976Z,33.95
2018-12-28T07:19:49.881Z,33.95
2018-12-28T07:23:25.684Z,33.91
2018-12-28T07:27:06.668Z,33.92
2018-12-28T07:30:43.145Z,33.94
2018-12-28T07:34:23.865Z,33.93
2018-12-28T07:37:50.248Z,33.93
2018-12-28T07:41:34.512Z,33.94
2018-12-28T07:45:22.397Z,33.90
2018-12-28T07:49:08.418Z,33.93
2018-12-28T07:52:58.135Z,33.89
2018-12-28T07:56:27.952Z,33.90
2018-12-28T08:00:13.123Z,33.88
2018-12-28T08:03:48.592Z,33.89
2018-12-28T08:07:38.880Z,33.91
2018-12-28T08:11:39.935Z,33.87
2018-12-28T08:15:25.485Z,33.92
2018-12-28T08:19:24.587Z,33.92
2018-12-28T08:23:09.180Z,33.91
2018-12-28T08:26:50.459Z,33.90
2018-12-28T08:30:44.182Z,33.94
2018-12-28T08:34:04.740Z,33.88
2018-12-28T08:37:48.280Z,33.88
2018-12-28T08:41:31.574Z,33.88
2018-12-28T08:45:12.701Z,33.92
2018-12-28T08:48:59.330Z,33.91
2018-12-28T08:52:47.547Z,33.91
2018-12-28T08:56:21.883Z,33.92
2018-12-28T09:00:26.101Z,33.91
2018-12-28T09:04:17.503Z,33.91
2018-12-28T09:08:10.891Z,33.91
2018-12-28T09:11:47.787Z,33.93
2018-12-28T09:15:56.982Z,33.94
2018-12-28T09:19:42.531Z,33.94
2018-12-28T09:23:30.543Z,33.96
2018-12-28T09:27:19.310Z,33.99
2018-12-28T09:30:47.002Z,34.13
2018-12-28T09:34:11.318Z,34.42
2018-12-28T09:37:32.594Z,34.42
2018-12-28T09:41:01.952Z,34.46
2018-12-28T09:44:37.081Z,34.42
2018-12-28T09:47:48.079Z,34.52
2018-12-28T09:51:32.755Z,34.49
2018-12-28T09:55:21.942Z,34.49
2018-12-28T09:58:46.763Z,34.45
2018-12-28T10:02:46.469Z,34.41
2018-12-28T10:06:00.364Z,34.46
2018-12-28T10:09:39.508Z,34.46
2018-12-28T10:13:26.563Z,34.46
2018-12-28T10:16:35.735Z,34.43
2018-12-28T10:19:39.190Z,34.48
2018-12-28T10:22:43.670Z,34.41
2018-12-28T10:25:49.115Z,34.39
2018-12-28T10:28:52.585Z,34.30
2018-12-28T10:31:56.094Z,34.24
2018-12-28T10:34:59.575Z,34.19
2018-12-28T10:38:03.234Z,34.16
2018-12-28T10:41:06.713Z,34.12
2018-12-28T10:44:10.189Z,34.12
2018-12-28T10:47:13.711Z,34.08
2018-12-28T10:50:17.271Z,34.07
2018-12-28T10:53:20.715Z,34.03
2018-12-28T10:56:24.425Z,34.01
2018-12-28T10:59:28.941Z,33.98
2018-12-28T11:02:33.464Z,33.98
2018-12-28T11:05:36.976Z,33.99
2018-12-28T11:08:40.509Z,33.98
2018-12-28T11:11:46.106Z,34.01
2018-12-28T11:14:49.298Z,34.01
2018-12-28T11:17:52.815Z,34.02
2018-12-28T11:20:56.326Z,34.08
2018-12-28T11:23:59.840Z,34.42
2018-12-28T11:27:03.330Z,34.55
2018-12-28T11:30:06.979Z,34.60
2018-12-28T11:33:10.585Z,34.59
2018-12-28T11:36:14.244Z,34.56
2018-12-28T11:39:17.749Z,34.49
2018-12-28T11:42:21.327Z,34.43
2018-12-28T11:45:24.982Z,34.46
2018-12-28T11:48:28.675Z,34.50
2018-12-28T11:51:32.154Z,34.42
2018-12-28T11:54:35.736Z,34.41
2018-12-28T11:57:39.359Z,34.40
2018-12-28T12:00:42.860Z,34.39
2018-12-28T12:03:46.397Z,34.41
2018-12-28T12:06:50.878Z,34.37
2018-12-28T12:09:54.374Z,34.34
2018-12-28T12:12:57.924Z,34.30
2018-12-28T12:16:01.374Z,34.33
2018-12-28T12:19:05.917Z,34.33
2018-12-28T12:22:09.390Z,34.29
2018-12-28T12:25:12.991Z,34.31
2018-12-28T12:28:18.138Z,34.29
2018-12-28T12:31:21.754Z,34.27
2018-12-28T12:34:25.296Z,34.31
2018-12-28T12:37:28.746Z,34.23
2018-12-28T12:40:32.512Z,34.22
2018-12-28T12:43:36.172Z,34.29
2018-12-28T12:46:39.690Z,34.32
2018-12-28T12:49:43.179Z,34.42
2018-12-28T12:52:46.839Z,34.47
2018-12-28T12:55:50.408Z,34.39
2018-12-28T12:58:53.982Z,34.44
2018-12-28T13:01:57.595Z,34.45
2018-12-28T13:05:01.083Z,34.30
2018-12-28T13:08:05.637Z,34.24
2018-12-28T13:11:09.114Z,34.23
2018-12-28T13:14:12.623Z,34.16
2018-12-28T13:17:17.166Z,33.99
2018-12-28T13:20:20.715Z,33.89
2018-12-28T13:23:24.242Z,33.81
2018-12-28T13:26:27.967Z,33.73
2018-12-28T13:29:31.543Z,33.63
2018-12-28T13:32:35.059Z,33.58
2018-12-28T13:35:38.544Z,33.52
2018-12-28T13:38:42.074Z,33.46
2018-12-28T13:41:46.599Z,33.44
2018-12-28T13:44:50.124Z,33.44
2018-12-28T13:47:53.802Z,33.39
2018-12-28T13:50:57.507Z,33.35
2018-12-28T13:54:01.011Z,33.48
2018-12-28T13:57:05.633Z,33.75
2018-12-28T14:00:09.677Z,33.75
2018-12-28T14:03:13.139Z,33.76
2018-12-28T14:06:16.640Z,33.63
2018-12-28T14:09:20.141Z,33.62
2018-12-28T14:12:29.411Z,33.52
2018-12-28T14:15:30.030Z,33.49
2018-12-28T14:18:33.559Z,33.42
2018-12-28T14:21:37.402Z,33.36
2018-12-28T14:24:40.930Z,33.36
2018-12-28T14:27:46.577Z,33.42
2018-12-28T14:30:50.165Z,33.67
2018-12-28T14:33:54.741Z,33.72
2018-12-28T14:36:58.193Z,33.73
2018-12-28T14:40:01.726Z,33.75
2018-12-28T14:43:05.187Z,33.72
2018-12-28T14:46:08.712Z,33.77
2018-12-28T14:49:12.215Z,33.76
2018-12-28T14:52:15.733Z,33.74
2018-12-28T14:55:19.203Z,33.73
2018-12-28T14:58:23.728Z,33.69
2018-12-28T15:01:27.261Z,33.66
2018-12-28T15:04:30.735Z,33.64
2018-12-28T15:07:34.257Z,33.61
2018-12-28T15:10:37.748Z,33.55
2018-12-28T15:13:41.263Z,33.53
2018-12-28T15:16:44.735Z,33.53
2018-12-28T15:19:48.229Z,33.60
2018-12-28T15:22:51.757Z,33.60
2018-12-28T15:25:55.250Z,33.51
2018-12-28T15:28:58.757Z,33.37
2018-12-28T15:32:02.286Z,33.54
2018-12-28T15:35:05.865Z,33.73
2018-12-28T15:38:09.562Z,34.03
2018-12-28T15:41:13.170Z,34.48
2018-12-28T15:44:16.767Z,34.68
2018-12-28T15:47:21.370Z,34.53
2018-12-28T15:50:24.889Z,34.32
2018-12-28T15:53:28.414Z,34.75
2018-12-28T15:56:31.878Z,34.69
2018-12-28T15:59:35.400Z,34.93
2018-12-28T16:02:38.890Z,34.83
2018-12-28T16:05:43.396Z,34.75
2018-12-28T16:08:47.940Z,34.86
2018-12-28T16:11:51.427Z,34.89
2018-12-28T16:14:54.948Z,34.43
2018-12-28T16:17:58.458Z,34.36
2018-12-28T16:21:02.959Z,34.41
2018-12-28T16:24:06.488Z,34.59
2018-12-28T16:27:10.094Z,34.79
2018-12-28T16:30:14.820Z,34.82
2018-12-28T16:33:18.434Z,34.89
2018-12-28T16:36:21.994Z,35.02
2018-12-28T16:39:25.459Z,34.85
2018-12-28T16:42:29.104Z,34.76
2018-12-28T16:45:32.720Z,34.67
2018-12-28T16:48:36.435Z,34.64
2018-12-28T16:51:40.011Z,34.57
2018-12-28T16:54:43.493Z,34.52
2018-12-28T16:57:46.994Z,34.46
2018-12-28T17:00:50.527Z,34.44
2018-12-28T17:03:54.002Z,34.48
2018-12-28T17:06:57.503Z,34.50
2018-12-28T17:10:01.023Z,34.45
2018-12-28T17:13:12.437Z,34.41
2018-12-28T17:16:10.882Z,34.40
2018-12-28T17:19:14.364Z,34.41
2018-12-28T17:22:17.897Z,34.40
2018-12-28T17:25:21.410Z,34.36
2018-12-28T17:28:24.877Z,34.35
2018-12-28T17:31:28.372Z,34.32
2018-12-28T17:34:31.881Z,34.32
2018-12-28T17:37:35.384Z,34.37
2018-12-28T17:40:40.403Z,34.34
2018-12-28T17:43:44.032Z,34.29
2018-12-28T17:46:49.574Z,34.27
2018-12-28T17:49:54.096Z,34.28
2018-12-28T17:52:58.628Z,34.25
2018-12-28T17:56:03.147Z,34.22
2018-12-28T17:59:06.671Z,34.18
2018-12-28T18:02:11.195Z,34.17
2018-12-28T18:05:14.715Z,34.16
2018-12-28T18:08:18.228Z,34.15
2018-12-28T18:11:22.699Z,34.13
2018-12-28T18:14:26.208Z,34.12
2018-12-28T18:17:35.639Z,34.10
2018-12-28T18:20:39.067Z,34.15
2018-12-28T18:23:42.589Z,34.14
2018-12-28T18:26:46.039Z,34.10
2018-12-28T18:29:49.670Z,34.13
2018-12-28T18:32:53.127Z,34.10
2018-12-28T18:35:56.669Z,34.10
2018-12-28T18:39:00.198Z,34.04
2018-12-28T18:42:03.679Z,34.05
2018-12-28T18:45:07.542Z,34.05
2018-12-28T18:48:10.985Z,34.08
2018-12-28T18:51:14.425Z,34.08
2018-12-28T18:54:17.886Z,34.11
2018-12-28T18:57:21.410Z,34.14
2018-12-28T19:00:24.878Z,34.11
2018-12-28T19:03:28.383Z,34.11
2018-12-28T19:06:31.887Z,34.10
2018-12-28T19:09:35.391Z,34.07
2018-12-28T19:12:38.874Z,34.07
2018-12-28T19:15:42.398Z,34.02
2018-12-28T19:18:46.821Z,34.04
2018-12-28T19:21:50.262Z,34.03
2018-12-28T19:24:53.727Z,34.00
2018-12-28T19:27:57.215Z,34.00
2018-12-28T19:31:00.740Z,34.02
2018-12-28T19:34:04.217Z,34.00
2018-12-28T19:37:07.744Z,33.98
2018-12-28T19:40:11.255Z,34.09
2018-12-28T19:43:14.744Z,34.12
2018-12-28T19:46:18.222Z,34.18
2018-12-28T19:49:22.795Z,34.30
2018-12-28T19:52:26.260Z,34.37
2018-12-28T19:55:29.750Z,34.41
2018-12-28T19:58:34.271Z,34.45
2018-12-28T20:01:39.983Z,34.48
2018-12-28T20:04:43.530Z,34.51
2018-12-28T20:07:47.024Z,34.49
2018-12-28T20:10:50.522Z,34.50
2018-12-28T20:13:56.448Z,34.55
2018-12-28T20:16:59.398Z,34.52
2018-12-28T20:20:02.884Z,34.54
2018-12-28T20:23:06.426Z,34.55
2018-12-28T20:26:09.991Z,34.55
2018-12-28T20:29:13.591Z,34.55
2018-12-28T20:32:17.110Z,34.58
2018-12-28T20:35:20.698Z,34.71
2018-12-28T20:38:24.128Z,34.60
2018-12-28T20:41:27.584Z,34.58
2018-12-28T20:44:31.102Z,34.53
2018-12-28T20:47:34.594Z,34.53
2018-12-28T20:50:38.109Z,34.67
2018-12-28T20:53:41.592Z,34.75
2018-12-28T20:56:46.130Z,34.82
2018-12-28T20:59:49.606Z,34.84
2018-12-28T21:02:53.052Z,34.84
2018-12-28T21:05:56.532Z,34.89
2018-12-28T21:08:59.964Z,34.87
2018-12-28T21:12:03.416Z,34.83
2018-12-28T21:15:06.957Z,34.87
2018-12-28T21:18:10.417Z,34.85
2018-12-28T21:21:13.928Z,34.82
2018-12-28T21:24:17.374Z,34.80
2018-12-28T21:27:20.855Z,34.80
2018-12-28T21:30:24.330Z,34.82
2018-12-28T21:33:27.937Z,34.82
2018-12-28T21:36:32.457Z,34.82
2018-12-28T21:39:35.963Z,34.82
2018-12-28T21:42:39.412Z,34.82
2018-12-28T21:45:42.959Z,34.83
2018-12-28T21:48:46.464Z,34.85
2018-12-28T21:51:49.904Z,34.86
2018-12-28T21:54:53.349Z,34.77
2018-12-28T21:57:56.966Z,34.74
2018-12-28T22:01:00.490Z,34.71
2018-12-28T22:04:03.951Z,34.69
2018-12-28T22:07:08.322Z,34.67
2018-12-28T22:10:12.010Z,34.64
2018-12-28T22:13:16.539Z,34.66
2018-12-28T22:16:20.023Z,34.67
2018-12-28T22:19:23.507Z,34.68
2018-12-28T22:22:27.015Z,34.69
2018-12-28T22:25:31.561Z,34.70
2018-12-28T22:28:35.048Z,34.71
2018-12-28T22:31:38.594Z,34.69
2018-12-28T22:34:42.045Z,34.69
2018-12-28T22:37:45.541Z,34.69
2018-12-28T22:40:48.974Z,34.73
2018-12-28T22:43:52.487Z,34.72
2018-12-28T22:46:56.056Z,34.74
2018-12-28T22:49:59.552Z,34.70
2018-12-28T22:53:04.093Z,34.71
2018-12-28T22:56:07.592Z,34.75
2018-12-28T22:59:11.075Z,34.74
2018-12-28T23:02:14.585Z,34.71
2018-12-28T23:05:20.135Z,34.75
2018-12-28T23:08:23.627Z,34.72
2018-12-28T23:11:27.138Z,34.73
2018-12-28T23:14:30.636Z,34.72
2018-12-28T23:17:34.147Z,34.73
2018-12-28T23:20:37.648Z,34.72
2018-12-28T23:23:42.176Z,34.70
2018-12-28T23:26:45.677Z,34.71
2018-12-28T23:29:49.142Z,34.74
2018-12-28T23:32:52.590Z,34.72
2018-12-28T23:35:56.180Z,34.79
2018-12-28T23:39:01.736Z,34.80
2018-12-28T23:42:05.214Z,34.79
2018-12-28T23:45:09.757Z,34.78
2018-12-28T23:48:13.213Z,34.80
2018-12-28T23:51:16.740Z,34.82
2018-12-28T23:54:20.227Z,34.84
2018-12-28T23:57:23.756Z,34.82
